createdAt,value
2022-12-23T00:01:29.511Z,9.08
2022-12-23T00:03:58.366Z,9.10
2022-12-23T00:06:27.551Z,9.10
2022-12-23T00:08:58.227Z,9.21
2022-12-23T00:11:26.984Z,9.15
2022-12-23T00:14:18.165Z,9.06
2022-12-23T00:16:48.463Z,9.01
2022-12-23T00:19:16.019Z,8.96
2022-12-23T00:21:44.817Z,9.04
2022-12-23T00:24:12.679Z,9.09
2022-12-23T00:26:40.247Z,9.05
2022-12-23T00:29:07.698Z,9.02
2022-12-23T00:31:35.253Z,9.09
2022-12-23T00:34:02.796Z,9.00
2022-12-23T00:36:32.179Z,9.02
2022-12-23T00:39:20.948Z,9.09
2022-12-23T00:42:05.753Z,9.00
2022-12-23T00:44:33.367Z,8.99
2022-12-23T00:47:00.775Z,8.98
2022-12-23T00:49:42.529Z,8.91
2022-12-23T00:52:11.345Z,8.96
2022-12-23T00:54:40.253Z,8.90
2022-12-23T00:57:07.794Z,8.98
2022-12-23T00:59:35.352Z,9.06
2022-12-23T01:02:20.777Z,8.99
2022-12-23T01:05:06.034Z,8.93
2022-12-23T01:07:33.632Z,9.02
2022-12-23T01:10:02.486Z,8.91
2022-12-23T01:12:30.041Z,8.93
2022-12-23T01:14:57.546Z,8.91
2022-12-23T01:17:25.043Z,8.95
2022-12-23T01:19:52.514Z,8.89
2022-12-23T01:22:19.901Z,8.85
2022-12-23T01:24:47.391Z,8.88
2022-12-23T01:27:16.276Z,8.86
2022-12-23T01:29:43.802Z,8.91
2022-12-23T01:32:11.314Z,8.83
2022-12-23T01:34:38.742Z,8.88
2022-12-23T01:37:06.686Z,8.79
2022-12-23T01:39:34.193Z,8.77
2022-12-23T01:42:19.286Z,8.85
2022-12-23T01:44:50.809Z,8.84
2022-12-23T01:47:20.844Z,8.92
2022-12-23T01:49:49.141Z,8.86
2022-12-23T01:52:16.715Z,8.80
2022-12-23T01:54:45.047Z,8.88
2022-12-23T01:57:13.017Z,8.76
2022-12-23T01:59:58.943Z,8.82
2022-12-23T02:02:46.566Z,8.85
2022-12-23T02:05:14.485Z,8.87
2022-12-23T02:07:59.676Z,8.88
2022-12-23T02:10:30.278Z,8.84
2022-12-23T02:13:02.422Z,8.96
2022-12-23T02:15:53.385Z,8.87
2022-12-23T02:18:31.006Z,8.82
2022-12-23T02:21:12.599Z,8.85
2022-12-23T02:23:56.071Z,8.76
2022-12-23T02:26:36.824Z,8.71
2022-12-23T02:29:13.983Z,8.73
2022-12-23T02:31:48.401Z,8.73
2022-12-23T02:34:17.595Z,8.75
2022-12-23T02:36:50.843Z,8.79
2022-12-23T02:39:21.581Z,8.72
2022-12-23T02:41:52.298Z,8.62
2022-12-23T02:44:24.705Z,8.62
2022-12-23T02:46:56.362Z,8.53
2022-12-23T02:49:25.772Z,8.50
2022-12-23T02:51:55.429Z,8.60
2022-12-23T02:54:27.593Z,8.61
2022-12-23T02:56:55.407Z,8.62
2022-12-23T02:59:23.848Z,8.48
2022-12-23T03:01:52.718Z,8.49
2022-12-23T03:04:21.655Z,8.48
2022-12-23T03:06:50.609Z,8.53
2022-12-23T03:09:24.265Z,8.57
2022-12-23T03:11:55.152Z,8.66
2022-12-23T03:14:36.093Z,8.79
2022-12-23T03:17:11.381Z,8.51
2022-12-23T03:19:42.753Z,8.60
2022-12-23T03:22:12.608Z,8.57
2022-12-23T03:24:45.771Z,8.53
2022-12-23T03:27:17.835Z,8.58
2022-12-23T03:29:50.501Z,8.53
2022-12-23T03:32:19.167Z,8.55
2022-12-23T03:34:49.478Z,8.59
2022-12-23T03:37:18.813Z,8.59
2022-12-23T03:39:48.227Z,8.59
2022-12-23T03:42:18.896Z,8.57
2022-12-23T03:45:19.335Z,8.65
2022-12-23T03:47:38.781Z,8.56
2022-12-23T03:50:08.990Z,8.67
2022-12-23T03:52:39.339Z,8.57
2022-12-23T03:55:08.822Z,8.65
2022-12-23T03:57:41.233Z,8.63
2022-12-23T04:00:09.267Z,8.74
2022-12-23T04:02:41.536Z,8.72
2022-12-23T04:05:17.356Z,8.60
2022-12-23T04:07:48.479Z,8.61
2022-12-23T04:10:16.411Z,8.59
2022-12-23T04:12:45.073Z,8.64
2022-12-23T04:15:13.457Z,8.52
2022-12-23T04:17:41.187Z,8.65
2022-12-23T04:20:09.140Z,8.56
2022-12-23T04:22:39.455Z,8.58
2022-12-23T04:25:07.395Z,8.56
2022-12-23T04:27:34.830Z,8.63
2022-12-23T04:30:02.326Z,8.63
2022-12-23T04:32:29.823Z,8.63
2022-12-23T04:34:57.321Z,8.67
2022-12-23T04:37:24.804Z,8.56
2022-12-23T04:39:53.648Z,8.66
2022-12-23T04:42:21.171Z,8.66
2022-12-23T04:44:48.645Z,8.62
2022-12-23T04:47:16.111Z,8.49
2022-12-23T04:49:43.615Z,8.59
2022-12-23T04:52:11.168Z,8.58
2022-12-23T04:54:45.524Z,8.70
2022-12-23T04:57:15.977Z,8.61
2022-12-23T04:59:43.476Z,8.77
2022-12-23T05:02:11.112Z,8.81
2022-12-23T05:04:38.787Z,8.90
2022-12-23T05:07:06.351Z,8.76
2022-12-23T05:09:33.816Z,8.89
2022-12-23T05:12:01.334Z,8.93
2022-12-23T05:14:30.172Z,8.80
2022-12-23T05:17:02.164Z,8.54
2022-12-23T05:19:32.788Z,8.66
2022-12-23T05:22:00.257Z,8.65
2022-12-23T05:24:27.720Z,8.59
2022-12-23T05:26:59.771Z,8.43
2022-12-23T05:29:28.028Z,8.50
2022-12-23T05:31:56.996Z,8.53
2022-12-23T05:34:24.484Z,8.54
2022-12-23T05:36:51.900Z,8.49
2022-12-23T05:39:19.295Z,8.39
2022-12-23T05:41:46.730Z,8.46
2022-12-23T05:44:14.181Z,8.42
2022-12-23T05:46:41.744Z,8.43
2022-12-23T05:49:10.563Z,8.43
2022-12-23T05:51:38.060Z,8.48
2022-12-23T05:54:05.605Z,8.46
2022-12-23T05:56:33.053Z,8.34
2022-12-23T05:59:00.596Z,8.37
2022-12-23T06:01:28.270Z,8.42
2022-12-23T06:03:55.835Z,8.37
2022-12-23T06:06:24.963Z,8.45
2022-12-23T06:08:59.124Z,8.44
2022-12-23T06:11:27.211Z,8.59
2022-12-23T06:13:54.739Z,8.54
2022-12-23T06:16:22.272Z,8.51
2022-12-23T06:18:49.787Z,8.42
2022-12-23T06:21:17.291Z,8.51
2022-12-23T06:23:46.140Z,8.63
2022-12-23T06:26:13.739Z,8.63
2022-12-23T06:28:41.270Z,8.52
2022-12-23T06:31:08.820Z,8.63
2022-12-23T06:33:36.325Z,8.54
2022-12-23T06:36:03.797Z,8.50
2022-12-23T06:38:31.281Z,8.62
2022-12-23T06:41:00.206Z,8.50
2022-12-23T06:43:27.669Z,8.54
2022-12-23T06:45:55.375Z,8.56
2022-12-23T06:48:22.926Z,8.57
2022-12-23T06:50:50.366Z,8.57
2022-12-23T06:53:17.844Z,8.51
2022-12-23T06:55:45.322Z,8.45
2022-12-23T06:58:14.186Z,8.42
2022-12-23T07:00:41.628Z,8.45
2022-12-23T07:03:09.228Z,8.47
2022-12-23T07:05:37.865Z,8.51
2022-12-23T07:08:05.701Z,8.50
2022-12-23T07:10:33.171Z,8.49
2022-12-23T07:13:02.112Z,8.58
2022-12-23T07:15:30.910Z,8.57
2022-12-23T07:17:58.407Z,8.39
2022-12-23T07:20:25.989Z,8.46
2022-12-23T07:22:54.933Z,8.49
2022-12-23T07:25:22.535Z,8.49
2022-12-23T07:27:53.530Z,8.51
2022-12-23T07:30:21.102Z,8.32
2022-12-23T07:32:50.302Z,8.33
2022-12-23T07:35:18.017Z,8.44
2022-12-23T07:37:45.687Z,8.39
2022-12-23T07:40:13.581Z,8.56
2022-12-23T07:42:46.566Z,8.61
2022-12-23T07:45:14.438Z,8.55
2022-12-23T07:47:41.858Z,8.63
2022-12-23T07:50:11.128Z,8.64
2022-12-23T07:52:38.669Z,8.72
2022-12-23T07:55:06.713Z,8.77
2022-12-23T07:57:38.197Z,8.55
2022-12-23T08:00:07.071Z,8.48
2022-12-23T08:02:34.582Z,8.51
2022-12-23T08:05:02.163Z,8.46
2022-12-23T08:07:31.035Z,8.40
2022-12-23T08:09:58.526Z,8.37
2022-12-23T08:12:26.177Z,8.35
2022-12-23T08:14:53.740Z,8.37
2022-12-23T08:17:21.987Z,8.54
2022-12-23T08:19:49.678Z,8.40
2022-12-23T08:22:17.136Z,8.33
2022-12-23T08:24:46.067Z,8.40
2022-12-23T08:27:13.572Z,8.36
2022-12-23T08:29:41.451Z,8.27
2022-12-23T08:32:09.072Z,8.30
2022-12-23T08:34:36.974Z,8.41
2022-12-23T08:37:04.484Z,8.46
2022-12-23T08:39:31.991Z,8.55
2022-12-23T08:42:00.864Z,8.49
2022-12-23T08:44:28.374Z,8.46
2022-12-23T08:46:56.032Z,8.56
2022-12-23T08:49:24.057Z,8.44
2022-12-23T08:51:51.668Z,8.36
2022-12-23T08:54:20.273Z,8.44
2022-12-23T08:56:47.778Z,8.33
2022-12-23T08:59:19.611Z,8.32
2022-12-23T09:01:48.092Z,8.32
2022-12-23T09:04:15.806Z,8.23
2022-12-23T09:06:43.573Z,8.22
2022-12-23T09:09:11.992Z,8.26
2022-12-23T09:11:39.474Z,8.28
2022-12-23T09:14:08.480Z,8.33
2022-12-23T09:16:37.378Z,8.30
2022-12-23T09:19:04.952Z,8.31
2022-12-23T09:21:32.645Z,8.31
2022-12-23T09:24:00.103Z,8.41
2022-12-23T09:26:28.834Z,8.48
2022-12-23T09:28:56.756Z,8.48
2022-12-23T09:31:26.885Z,8.42
2022-12-23T09:33:59.399Z,8.54
2022-12-23T09:36:26.900Z,8.53
2022-12-23T09:38:55.322Z,8.37
2022-12-23T09:41:35.879Z,8.48
2022-12-23T09:44:13.853Z,8.52
2022-12-23T09:46:45.703Z,8.43
2022-12-23T09:49:16.590Z,8.36
2022-12-23T09:51:44.623Z,8.40
2022-12-23T09:54:17.165Z,8.44
2022-12-23T09:56:48.457Z,8.35
2022-12-23T09:59:21.079Z,8.39
2022-12-23T10:01:51.766Z,8.42
2022-12-23T10:04:37.490Z,8.44
2022-12-23T10:07:18.471Z,8.60
2022-12-23T10:09:48.484Z,8.58
2022-12-23T10:12:27.242Z,8.60
2022-12-23T10:14:56.843Z,8.68
2022-12-23T10:17:27.718Z,8.59
2022-12-23T10:19:58.662Z,8.70
2022-12-23T10:22:29.130Z,8.79
2022-12-23T10:24:58.667Z,8.95
2022-12-23T10:27:30.189Z,8.91
2022-12-23T10:30:09.642Z,8.77
2022-12-23T10:32:55.324Z,8.93
2022-12-23T10:35:27.289Z,8.95
2022-12-23T10:37:57.313Z,8.75
2022-12-23T10:40:27.381Z,8.83
2022-12-23T10:43:00.767Z,8.84
2022-12-23T10:45:40.210Z,8.65
2022-12-23T10:48:16.155Z,8.63
2022-12-23T10:50:50.985Z,8.59
2022-12-23T10:53:28.426Z,8.66
2022-12-23T10:55:57.093Z,8.70
2022-12-23T10:58:24.593Z,8.70
2022-12-23T11:01:00.503Z,8.73
2022-12-23T11:03:29.478Z,8.75
2022-12-23T11:05:57.922Z,8.40
2022-12-23T11:08:28.057Z,8.78
2022-12-23T11:10:56.104Z,8.82
2022-12-23T11:13:34.439Z,8.87
2022-12-23T11:16:12.692Z,8.74
2022-12-23T11:18:52.652Z,8.83
2022-12-23T11:21:20.270Z,8.91
2022-12-23T11:23:49.056Z,8.77
2022-12-23T11:26:19.612Z,8.90
2022-12-23T11:28:49.924Z,8.82
2022-12-23T11:31:26.861Z,8.82
2022-12-23T11:33:57.985Z,8.78
2022-12-23T11:36:27.771Z,8.84
2022-12-23T11:39:02.380Z,8.82
2022-12-23T11:41:31.060Z,8.80
2022-12-23T11:44:01.742Z,8.85
2022-12-23T11:46:30.391Z,8.88
2022-12-23T11:49:08.553Z,8.81
2022-12-23T11:51:36.010Z,8.78
2022-12-23T11:54:05.721Z,8.84
2022-12-23T11:56:37.776Z,8.93
2022-12-23T11:59:07.706Z,8.94
2022-12-23T12:01:36.768Z,8.90
2022-12-23T12:04:04.970Z,8.95
2022-12-23T12:06:33.471Z,8.96
2022-12-23T12:09:03.113Z,8.98
2022-12-23T12:11:36.457Z,8.93
2022-12-23T12:14:04.752Z,8.99
2022-12-23T12:16:44.905Z,8.99
2022-12-23T12:19:16.686Z,8.96
2022-12-23T12:21:45.675Z,8.90
2022-12-23T12:24:19.047Z,8.84
2022-12-23T12:26:52.603Z,8.86
2022-12-23T12:29:23.589Z,8.90
2022-12-23T12:31:52.058Z,8.82
2022-12-23T12:34:29.140Z,8.90
2022-12-23T12:36:59.648Z,8.82
2022-12-23T12:39:31.157Z,8.88
2022-12-23T12:42:05.941Z,8.86
2022-12-23T12:44:38.824Z,8.65
2022-12-23T12:47:28.578Z,8.90
2022-12-23T12:50:00.203Z,8.85
2022-12-23T12:52:28.547Z,8.88
2022-12-23T12:54:58.021Z,9.09
2022-12-23T12:57:27.190Z,8.92
2022-12-23T13:00:01.618Z,8.96
2022-12-23T13:02:44.059Z,9.07
2022-12-23T13:05:32.619Z,9.05
2022-12-23T13:08:09.410Z,9.22
2022-12-23T13:10:41.044Z,9.15
2022-12-23T13:13:27.206Z,9.14
2022-12-23T13:15:58.750Z,9.12
2022-12-23T13:18:35.157Z,9.07
2022-12-23T13:21:06.711Z,9.05
2022-12-23T13:23:44.580Z,9.25
2022-12-23T13:26:16.333Z,9.18
2022-12-23T13:28:48.648Z,9.18
2022-12-23T13:31:19.978Z,9.14
2022-12-23T13:33:50.673Z,9.30
2022-12-23T13:36:27.375Z,9.23
2022-12-23T13:39:04.261Z,9.19
2022-12-23T13:41:33.299Z,9.02
2022-12-23T13:44:02.596Z,9.07
2022-12-23T13:46:37.633Z,9.11
2022-12-23T13:49:07.859Z,9.18
2022-12-23T13:51:39.563Z,9.21
2022-12-23T13:54:16.895Z,9.17
2022-12-23T13:56:47.115Z,9.20
2022-12-23T13:59:16.959Z,9.13
2022-12-23T14:01:46.129Z,9.21
2022-12-23T14:04:30.879Z,9.21
2022-12-23T14:06:59.251Z,9.26
2022-12-23T14:09:30.366Z,9.29
2022-12-23T14:12:02.690Z,9.28
2022-12-23T14:14:33.574Z,9.33
2022-12-23T14:17:04.007Z,9.38
2022-12-23T14:19:40.568Z,9.46
2022-12-23T14:22:14.687Z,9.44
2022-12-23T14:25:02.236Z,9.48
2022-12-23T14:27:36.648Z,9.42
2022-12-23T14:30:12.032Z,9.31
2022-12-23T14:32:43.819Z,9.39
2022-12-23T14:35:22.568Z,9.27
2022-12-23T14:38:08.808Z,9.36
2022-12-23T14:40:53.273Z,9.26
2022-12-23T14:43:28.709Z,9.23
2022-12-23T14:45:58.223Z,9.17
2022-12-23T14:49:09.638Z,9.22
2022-12-23T14:51:41.537Z,9.28
2022-12-23T14:54:14.157Z,9.18
2022-12-23T14:56:49.967Z,9.21
2022-12-23T14:59:20.194Z,9.27
2022-12-23T15:01:49.837Z,9.26
2022-12-23T15:04:19.542Z,9.16
2022-12-23T15:06:48.437Z,9.11
2022-12-23T15:09:21.721Z,9.05
2022-12-23T15:11:49.191Z,9.04
2022-12-23T15:14:21.088Z,9.07
2022-12-23T15:16:49.985Z,9.14
2022-12-23T15:19:22.638Z,9.17
2022-12-23T15:21:59.260Z,9.17
2022-12-23T15:24:32.967Z,9.12
2022-12-23T15:29:49.292Z,9.25
2022-12-23T15:32:18.355Z,9.25
2022-12-23T15:34:48.136Z,9.23
2022-12-23T15:37:18.188Z,9.21
2022-12-23T15:39:46.947Z,9.25
2022-12-23T15:42:21.397Z,9.18
2022-12-23T15:44:48.908Z,9.28
2022-12-23T15:47:25.125Z,9.30
2022-12-23T15:49:52.793Z,9.17
2022-12-23T15:52:20.823Z,9.20
2022-12-23T15:54:54.340Z,9.23
2022-12-23T15:57:23.540Z,9.27
2022-12-23T15:59:51.501Z,9.28
2022-12-23T16:05:10.178Z,9.31
2022-12-23T16:07:39.659Z,9.27
2022-12-23T16:10:14.071Z,9.22
2022-12-23T16:12:42.253Z,9.26
2022-12-23T16:15:20.121Z,9.25
2022-12-23T16:17:47.663Z,9.25
2022-12-23T16:20:20.216Z,9.36
2022-12-23T16:22:50.386Z,9.10
2022-12-23T16:25:19.952Z,8.92
2022-12-23T16:27:48.926Z,8.85
2022-12-23T16:30:18.481Z,8.94
2022-12-23T16:32:50.437Z,8.82
2022-12-23T16:35:30.128Z,9.05
2022-12-23T16:38:02.518Z,9.08
2022-12-23T16:40:30.050Z,9.16
2022-12-23T16:42:58.028Z,9.22
2022-12-23T16:45:25.585Z,8.99
2022-12-23T16:47:55.073Z,9.10
2022-12-23T16:50:22.586Z,9.18
2022-12-23T16:52:51.397Z,9.14
2022-12-23T16:55:20.035Z,9.16
2022-12-23T16:57:47.563Z,9.02
2022-12-23T17:00:17.499Z,9.02
2022-12-23T17:02:45.761Z,9.03
2022-12-23T17:05:16.129Z,9.09
2022-12-23T17:07:45.627Z,9.19
2022-12-23T17:10:15.851Z,9.09
2022-12-23T17:12:43.876Z,8.83
2022-12-23T17:15:16.662Z,9.09
2022-12-23T17:17:44.123Z,9.17
2022-12-23T17:20:11.920Z,8.98
2022-12-23T17:22:39.585Z,8.83
2022-12-23T17:25:07.162Z,8.86
2022-12-23T17:27:36.017Z,8.98
2022-12-23T17:30:04.860Z,9.02
2022-12-23T17:32:32.718Z,9.10
2022-12-23T17:35:00.271Z,9.22
2022-12-23T17:37:30.669Z,9.22
2022-12-23T17:39:58.395Z,9.30
2022-12-23T17:42:26.330Z,9.14
2022-12-23T17:44:55.212Z,9.10
2022-12-23T17:47:23.243Z,8.95
2022-12-23T17:49:50.950Z,9.08
2022-12-23T17:52:19.063Z,9.06
2022-12-23T17:54:47.022Z,9.01
2022-12-23T17:57:17.549Z,9.08
2022-12-23T17:59:47.779Z,9.19
2022-12-23T18:02:21.593Z,9.16
2022-12-23T18:04:49.193Z,9.18
2022-12-23T18:07:16.843Z,9.17
2022-12-23T18:09:44.316Z,9.23
2022-12-23T18:12:24.978Z,9.34
2022-12-23T18:14:52.823Z,9.39
2022-12-23T18:17:21.701Z,9.38
2022-12-23T18:19:49.206Z,9.43
2022-12-23T18:22:18.875Z,9.47
2022-12-23T18:24:46.858Z,9.44
2022-12-23T18:27:15.151Z,9.51
2022-12-23T18:29:42.798Z,9.54
2022-12-23T18:32:18.732Z,9.59
2022-12-23T18:34:47.586Z,9.69
2022-12-23T18:37:15.126Z,9.70
2022-12-23T18:39:42.711Z,9.82
2022-12-23T18:42:12.267Z,9.74
2022-12-23T18:44:39.965Z,9.82
2022-12-23T18:47:07.403Z,9.82
2022-12-23T18:49:34.929Z,9.90
2022-12-23T18:52:04.321Z,9.80
2022-12-23T18:54:31.797Z,9.85
2022-12-23T18:57:00.981Z,9.85
2022-12-23T18:59:30.200Z,9.88
2022-12-23T19:01:58.074Z,9.95
2022-12-23T19:04:25.886Z,9.92
2022-12-23T19:06:53.458Z,9.91
2022-12-23T19:09:23.150Z,9.86
2022-12-23T19:11:51.898Z,9.92
2022-12-23T19:14:19.399Z,9.99
2022-12-23T19:16:51.662Z,10.03
2022-12-23T19:19:19.978Z,10.01
2022-12-23T19:21:47.611Z,9.98
2022-12-23T19:24:15.160Z,9.84
2022-12-23T19:26:44.028Z,9.83
2022-12-23T19:29:11.510Z,9.81
2022-12-23T19:31:39.081Z,9.81
2022-12-23T19:34:11.198Z,9.80
2022-12-23T19:36:42.296Z,9.76
2022-12-23T19:39:15.816Z,9.85
2022-12-23T19:41:44.680Z,9.83
2022-12-23T19:44:12.180Z,9.87
2022-12-23T19:46:39.708Z,9.87
2022-12-23T19:49:07.269Z,9.91
2022-12-23T19:51:34.775Z,9.91
2022-12-23T19:54:02.268Z,9.86
2022-12-23T19:56:30.412Z,9.89
2022-12-23T19:58:59.632Z,9.88
2022-12-23T20:01:27.621Z,9.89
2022-12-23T20:03:56.307Z,9.92
2022-12-23T20:06:25.159Z,9.96
2022-12-23T20:08:58.073Z,9.92
2022-12-23T20:11:30.597Z,9.94
2022-12-23T20:14:00.114Z,9.93
2022-12-23T20:16:28.099Z,9.96
2022-12-23T20:18:56.400Z,9.93
2022-12-23T20:21:24.079Z,9.91
2022-12-23T20:23:51.611Z,9.86
2022-12-23T20:26:20.264Z,9.88
2022-12-23T20:28:47.882Z,9.89
2022-12-23T20:31:18.938Z,9.94
2022-12-23T20:33:46.998Z,9.92
2022-12-23T20:36:16.022Z,9.94
2022-12-23T20:38:44.782Z,9.92
2022-12-23T20:41:12.990Z,9.90
2022-12-23T20:43:40.464Z,9.90
2022-12-23T20:46:09.091Z,9.86
2022-12-23T20:48:37.950Z,9.84
2022-12-23T20:51:05.876Z,9.98
2022-12-23T20:53:33.615Z,9.91
2022-12-23T20:56:01.142Z,9.92
2022-12-23T20:58:46.285Z,9.94
2022-12-23T21:01:14.336Z,9.91
2022-12-23T21:03:43.351Z,9.94
2022-12-23T21:06:10.902Z,9.93
2022-12-23T21:08:39.245Z,9.93
2022-12-23T21:11:08.052Z,9.95
2022-12-23T21:13:36.982Z,9.89
2022-12-23T21:16:05.867Z,9.93
2022-12-23T21:18:33.563Z,9.90
2022-12-23T21:21:03.100Z,9.98
2022-12-23T21:23:30.882Z,9.96
2022-12-23T21:26:15.243Z,9.94
2022-12-23T21:28:43.729Z,9.87
2022-12-23T21:31:11.287Z,10.04
2022-12-23T21:33:39.981Z,10.00
2022-12-23T21:36:10.911Z,9.91
2022-12-23T21:38:41.404Z,9.89
2022-12-23T21:41:10.653Z,9.93
2022-12-23T21:43:38.387Z,9.87
2022-12-23T21:46:07.080Z,9.59
2022-12-23T21:48:35.501Z,9.84
2022-12-23T21:51:03.617Z,9.86
2022-12-23T21:53:32.747Z,9.82
2022-12-23T21:56:03.835Z,9.86
2022-12-23T21:58:31.400Z,9.84
2022-12-23T22:00:59.361Z,9.92
2022-12-23T22:03:27.598Z,9.81
2022-12-23T22:05:55.100Z,9.73
2022-12-23T22:08:22.492Z,9.69
2022-12-23T22:10:51.424Z,9.66
2022-12-23T22:13:18.946Z,9.63
2022-12-23T22:15:46.472Z,9.65
2022-12-23T22:18:13.979Z,9.69
2022-12-23T22:20:46.370Z,9.64
2022-12-23T22:23:14.211Z,9.68
2022-12-23T22:25:41.671Z,9.77
2022-12-23T22:28:10.478Z,9.73
2022-12-23T22:30:37.849Z,9.72
2022-12-23T22:33:05.278Z,9.69
2022-12-23T22:35:32.703Z,9.65
2022-12-23T22:38:00.184Z,9.62
2022-12-23T22:40:27.627Z,9.61
2022-12-23T22:42:55.123Z,9.64
2022-12-23T22:45:24.085Z,9.63
2022-12-23T22:47:51.762Z,9.36
2022-12-23T22:50:19.370Z,9.63
2022-12-23T22:52:46.835Z,9.70
2022-12-23T22:55:14.277Z,9.67
2022-12-23T22:57:41.780Z,9.63
2022-12-23T23:00:12.531Z,9.65
2022-12-23T23:02:41.772Z,9.65
2022-12-23T23:05:13.016Z,9.64
2022-12-23T23:07:40.800Z,9.60
2022-12-23T23:10:08.972Z,9.62
2022-12-23T23:12:36.465Z,9.60
2022-12-23T23:15:03.885Z,9.61
2022-12-23T23:17:31.327Z,9.61
2022-12-23T23:20:00.200Z,9.67
2022-12-23T23:22:27.653Z,9.62
2022-12-23T23:24:55.217Z,9.59
2022-12-23T23:27:22.720Z,9.56
2022-12-23T23:29:50.256Z,9.60
2022-12-23T23:32:17.763Z,9.66
2022-12-23T23:34:45.252Z,9.62
2022-12-23T23:37:15.672Z,9.62
2022-12-23T23:39:43.142Z,9.60
2022-12-23T23:42:10.718Z,9.59
2022-12-23T23:44:38.147Z,9.61
2022-12-23T23:47:05.616Z,9.69
2022-12-23T23:49:33.139Z,9.69
2022-12-23T23:52:00.578Z,9.76
2022-12-23T23:54:29.468Z,9.63
2022-12-23T23:56:56.951Z,9.64
2022-12-23T23:59:24.391Z,9.61
